Time;durP1;ratioP1;P1;durP2;ratioP2;P2;SDS_P1;SDS_P2;PMS_P1;PMS_P2;Temp;Humidity;BMP_temperature;BMP_pressure;BME280_temperature;BME280_humidity;BME280_pressure;Samples;Min_cycle;Max_cycle;Signal;HPM_P1;HPM_P2
2024/01/30 00:00:08;;;;;;;43.25;25.10;;;0.00;93.10;;;;;;5181020;28;20033;-33
2024/01/30 00:02:39;;;;;;;36.45;20.75;;;0.00;99.90;;;;;;5187236;28;20035;-34
2024/01/30 00:05:10;;;;;;;30.50;19.73;;;-0.30;99.90;;;;;;5187958;28;20040;-33
2024/01/30 00:07:41;;;;;;;31.83;20.48;;;-0.50;99.90;;;;;;5187732;28;20037;-33
2024/01/30 00:10:12;;;;;;;41.78;24.48;;;-0.50;99.90;;;;;;5186287;28;20033;-34
2024/01/30 00:12:44;;;;;;;43.25;24.58;;;-0.20;99.90;;;;;;5183820;28;20030;-33
2024/01/30 00:15:15;;;;;;;40.88;24.15;;;-0.10;99.90;;;;;;5183904;28;20260;-34
2024/01/30 00:17:46;;;;;;;39.13;23.52;;;0.00;99.90;;;;;;5187746;28;20041;-34
2024/01/30 00:20:17;;;;;;;41.75;25.30;;;0.10;99.90;;;;;;5188735;28;20318;-34
2024/01/30 00:22:49;;;;;;;40.40;21.23;;;0.20;99.90;;;;;;5187292;28;20040;-37
2024/01/30 00:25:20;;;;;;;34.22;19.13;;;0.30;99.90;;;;;;5181403;28;20349;-33
2024/01/30 00:27:51;;;;;;;45.15;24.13;;;0.10;99.90;;;;;;5185236;28;20242;-34
2024/01/30 00:30:22;;;;;;;39.72;22.67;;;0.20;99.90;;;;;;5186237;28;20247;-33
2024/01/30 00:32:54;;;;;;;41.45;23.25;;;0.10;99.90;;;;;;5191402;28;20278;-34
2024/01/30 00:35:26;;;;;;;40.10;24.65;;;0.20;99.90;;;;;;5186950;28;20029;-34
2024/01/30 00:37:57;;;;;;;42.63;24.27;;;0.10;99.90;;;;;;5187812;28;20542;-34
2024/01/30 00:40:28;;;;;;;47.78;24.42;;;0.10;99.90;;;;;;5187601;28;20035;-34
2024/01/30 00:42:59;;;;;;;39.10;21.83;;;0.10;99.90;;;;;;5175822;28;20033;-33
2024/01/30 00:45:31;;;;;;;37.35;21.23;;;0.10;99.90;;;;;;5194127;28;20337;-33
2024/01/30 00:48:02;;;;;;;42.20;21.45;;;0.20;99.90;;;;;;5185821;28;20047;-37
2024/01/30 00:50:33;;;;;;;39.30;22.40;;;0.10;99.90;;;;;;5185937;28;20029;-34
2024/01/30 00:53:04;;;;;;;38.05;21.45;;;0.20;99.90;;;;;;5187275;28;20045;-33
2024/01/30 00:55:36;;;;;;;37.45;20.98;;;0.20;99.90;;;;;;5188631;28;20033;-34
2024/01/30 00:58:07;;;;;;;41.08;21.15;;;0.20;99.90;;;;;;5183141;28;20344;-34
2024/01/30 01:00:39;;;;;;;35.65;21.23;;;0.30;99.90;;;;;;5172332;28;20201;-33
2024/01/30 01:03:10;;;;;;;33.60;19.27;;;0.40;99.90;;;;;;5186706;28;20043;-33
2024/01/30 01:05:41;;;;;;;33.58;19.40;;;0.20;99.90;;;;;;5185530;28;20340;-34
2024/01/30 01:08:14;;;;;;;31.52;19.25;;;0.10;99.90;;;;;;5185921;28;20216;-34
2024/01/30 01:10:46;;;;;;;35.28;21.25;;;-0.10;99.90;;;;;;5185789;28;20332;-33
2024/01/30 01:13:17;;;;;;;35.33;20.25;;;-0.10;99.90;;;;;;5193398;28;20033;-36
2024/01/30 01:15:48;;;;;;;34.42;20.63;;;0.00;99.90;;;;;;5185224;28;20161;-33
2024/01/30 01:18:19;;;;;;;36.85;21.05;;;0.00;99.90;;;;;;5181662;28;20029;-34
2024/01/30 01:20:50;;;;;;;40.45;20.50;;;0.10;99.90;;;;;;5185423;28;20029;-34
2024/01/30 01:23:21;;;;;;;34.15;20.60;;;0.00;99.90;;;;;;5183774;28;20284;-34
2024/01/30 01:25:53;;;;;;;37.55;20.75;;;0.10;99.90;;;;;;5183931;28;20224;-34
2024/01/30 01:28:24;;;;;;;34.92;19.30;;;0.10;99.90;;;;;;5185322;28;20446;-34
2024/01/30 01:30:58;;;;;;;34.58;20.63;;;0.10;99.90;;;;;;5165820;28;20245;-33
2024/01/30 01:33:30;;;;;;;36.15;20.13;;;0.10;99.90;;;;;;5176678;28;20017;-33
2024/01/30 01:36:04;;;;;;;35.65;19.75;;;0.00;99.90;;;;;;5203223;28;20063;-33
2024/01/30 01:38:35;;;;;;;34.00;19.88;;;0.00;99.90;;;;;;5205986;28;20185;-33
2024/01/30 01:41:07;;;;;;;40.15;20.42;;;0.00;99.90;;;;;;5199490;28;20353;-32
2024/01/30 01:43:39;;;;;;;33.28;20.17;;;0.10;99.90;;;;;;5183943;28;20022;-32
2024/01/30 01:46:10;;;;;;;37.20;19.23;;;-0.10;99.90;;;;;;5177513;28;20060;-33
2024/01/30 01:48:43;;;;;;;35.53;20.13;;;-0.20;99.90;;;;;;5181339;28;20127;-33
2024/01/30 01:51:15;;;;;;;37.50;19.35;;;-0.10;99.90;;;;;;5184922;28;20237;-33
2024/01/30 01:53:46;;;;;;;33.80;20.23;;;0.00;99.90;;;;;;5186213;28;20044;-32
2024/01/30 01:56:18;;;;;;;31.30;19.33;;;0.20;99.90;;;;;;5185679;28;20237;-32
2024/01/30 01:58:51;;;;;;;35.72;21.42;;;0.10;99.90;;;;;;5185455;28;20044;-33
2024/01/30 02:01:25;;;;;;;33.67;19.30;;;0.00;99.90;;;;;;5178484;28;20297;-33
2024/01/30 02:03:56;;;;;;;35.15;19.65;;;0.00;99.90;;;;;;5180480;28;20158;-33
2024/01/30 02:06:27;;;;;;;36.55;20.73;;;0.00;99.90;;;;;;5160709;28;20539;-32
2024/01/30 02:08:59;;;;;;;34.13;19.73;;;-0.20;99.90;;;;;;5194081;28;20256;-33
2024/01/30 02:11:31;;;;;;;34.97;20.33;;;-0.30;99.90;;;;;;5162620;28;20041;-33
2024/01/30 02:14:04;;;;;;;34.85;18.75;;;-0.30;99.90;;;;;;5176908;28;20032;-32
2024/01/30 02:16:36;;;;;;;31.58;19.52;;;-0.20;99.90;;;;;;5193279;28;20060;-33
2024/01/30 02:19:07;;;;;;;34.10;18.52;;;-0.40;99.90;;;;;;5184624;28;20025;-32
2024/01/30 02:21:39;;;;;;;30.35;17.98;;;-0.60;99.90;;;;;;5177312;28;20246;-32
2024/01/30 02:24:10;;;;;;;34.30;19.90;;;-0.40;99.90;;;;;;5182174;28;20044;-32
2024/01/30 02:26:41;;;;;;;33.60;19.67;;;-0.30;99.90;;;;;;5184807;28;20035;-32
2024/01/30 02:29:13;;;;;;;34.45;20.15;;;-0.30;99.90;;;;;;5185249;28;20026;-33
2024/01/30 02:31:45;;;;;;;33.00;20.27;;;-0.40;99.90;;;;;;5154125;28;20349;-32
2024/01/30 02:34:16;;;;;;;31.30;20.60;;;-0.40;99.90;;;;;;5182168;28;20364;-33
2024/01/30 02:36:48;;;;;;;33.67;19.95;;;-0.40;99.90;;;;;;5178992;28;20257;-31
2024/01/30 02:39:19;;;;;;;29.55;19.85;;;-0.30;99.90;;;;;;5188540;28;20205;-33
2024/01/30 02:41:51;;;;;;;29.85;18.40;;;-0.20;99.90;;;;;;5183753;28;20119;-32
2024/01/30 02:44:22;;;;;;;36.10;19.52;;;-0.10;99.90;;;;;;5183851;28;20067;-32
2024/01/30 02:46:54;;;;;;;35.60;20.33;;;-0.30;99.90;;;;;;5186033;28;20243;-33
2024/01/30 02:49:25;;;;;;;33.83;19.67;;;-0.20;99.90;;;;;;5183068;28;20268;-33
2024/01/30 02:51:56;;;;;;;31.77;20.00;;;-0.20;99.90;;;;;;5184498;28;20033;-32
2024/01/30 02:54:27;;;;;;;32.13;19.10;;;-0.20;99.90;;;;;;5187803;28;20062;-32
2024/01/30 02:56:59;;;;;;;30.08;18.48;;;-0.40;99.90;;;;;;5175697;28;20048;-32
2024/01/30 02:59:33;;;;;;;37.60;19.27;;;-0.20;99.90;;;;;;5183822;28;20048;-33
2024/01/30 03:02:04;;;;;;;;;;;-0.10;99.90;;;;;;5156042;28;20046;-32
2024/01/30 03:04:35;;;;;;;33.75;19.60;;;0.00;99.90;;;;;;5185875;28;20173;-33
2024/01/30 03:07:06;;;;;;;36.42;20.27;;;0.30;99.90;;;;;;5178961;28;20041;-32
2024/01/30 03:09:38;;;;;;;32.17;19.85;;;0.50;99.90;;;;;;5200732;28;20037;-32
2024/01/30 03:12:09;;;;;;;33.33;20.23;;;0.40;99.90;;;;;;5187911;28;20241;-33
2024/01/30 03:14:40;;;;;;;32.92;18.67;;;0.50;99.90;;;;;;5186193;28;20044;-31
2024/01/30 03:17:11;;;;;;;31.15;17.98;;;0.30;99.90;;;;;;5166841;28;20037;-32
2024/01/30 03:19:42;;;;;;;30.55;18.45;;;0.10;99.90;;;;;;5172652;28;20043;-32
2024/01/30 03:22:14;;;;;;;36.58;19.95;;;0.30;99.90;;;;;;5183447;28;20033;-31
2024/01/30 03:24:45;;;;;;;30.88;19.02;;;0.10;99.90;;;;;;5197756;28;20149;-31
2024/01/30 03:27:16;;;;;;;38.08;18.17;;;-0.10;99.90;;;;;;5189271;28;20558;-37
2024/01/30 03:29:47;;;;;;;33.67;19.23;;;0.10;99.90;;;;;;5188465;28;20198;-33
2024/01/30 03:32:18;;;;;;;34.17;19.85;;;0.20;99.90;;;;;;5185452;28;20525;-33
2024/01/30 03:34:49;;;;;;;31.63;18.98;;;0.20;99.90;;;;;;5189771;28;20215;-31
2024/01/30 03:37:21;;;;;;;31.35;18.25;;;0.20;99.90;;;;;;5185888;28;20049;-33
2024/01/30 03:39:52;;;;;;;34.33;18.83;;;0.10;99.90;;;;;;5185335;28;20037;-33
2024/01/30 03:42:23;;;;;;;29.35;17.75;;;0.00;99.90;;;;;;5198603;28;20033;-33
2024/01/30 03:44:55;;;;;;;30.98;17.98;;;-0.30;99.90;;;;;;5187307;28;20029;-33
2024/01/30 03:47:26;;;;;;;34.53;19.20;;;-0.40;99.90;;;;;;5185610;28;20264;-33
2024/01/30 03:49:57;;;;;;;30.60;18.58;;;-0.30;99.90;;;;;;5188059;28;20055;-33
2024/01/30 03:52:28;;;;;;;27.83;17.13;;;-0.40;99.90;;;;;;5177937;28;20255;-35
2024/01/30 03:54:59;;;;;;;33.80;19.70;;;-0.30;99.90;;;;;;5176258;28;20036;-30
2024/01/30 03:57:31;;;;;;;30.65;18.05;;;-0.30;99.90;;;;;;5182362;28;20251;-33
2024/01/30 04:00:04;;;;;;;34.90;19.15;;;-0.40;99.90;;;;;;5183586;28;20025;-30
2024/01/30 04:02:36;;;;;;;30.42;18.50;;;-0.50;99.90;;;;;;5187287;28;20032;-32
2024/01/30 04:05:07;;;;;;;29.97;17.97;;;-0.60;99.90;;;;;;5170416;28;20313;-32
2024/01/30 04:07:38;;;;;;;30.27;17.65;;;-0.60;99.90;;;;;;5196218;28;20033;-32
2024/01/30 04:10:10;;;;;;;32.25;18.38;;;-0.60;99.90;;;;;;5178983;28;20033;-31
2024/01/30 04:12:41;;;;;;;31.27;18.50;;;-0.60;99.90;;;;;;5194049;28;20044;-32
2024/01/30 04:15:13;;;;;;;33.08;19.25;;;-0.50;99.90;;;;;;5183177;28;20323;-31
2024/01/30 04:17:44;;;;;;;38.70;20.42;;;-0.50;99.90;;;;;;5185959;28;20039;-34
2024/01/30 04:20:16;;;;;;;36.75;21.90;;;-0.60;99.90;;;;;;5201823;28;20048;-31
2024/01/30 04:22:47;;;;;;;32.97;20.50;;;-0.80;99.90;;;;;;5201742;28;20232;-31
2024/01/30 04:25:18;;;;;;;36.97;19.55;;;-0.80;99.90;;;;;;5179993;28;20025;-31
2024/01/30 04:27:49;;;;;;;37.22;20.58;;;-0.70;99.90;;;;;;5185692;28;20030;-31
2024/01/30 04:30:21;;;;;;;30.83;18.73;;;-0.60;99.90;;;;;;5159245;28;20037;-30
2024/01/30 04:32:52;;;;;;;39.15;19.75;;;-0.60;99.90;;;;;;5203189;28;20244;-30
2024/01/30 04:35:24;;;;;;;35.60;19.60;;;-0.70;99.90;;;;;;5207066;28;20020;-29
2024/01/30 04:37:55;;;;;;;31.02;19.35;;;-0.80;99.90;;;;;;5204717;28;20040;-31
2024/01/30 04:40:27;;;;;;;30.42;18.10;;;-0.80;99.90;;;;;;5183874;28;20044;-30
2024/01/30 04:42:58;;;;;;;45.72;27.15;;;-0.80;99.90;;;;;;5193384;28;20192;-35
2024/01/30 04:45:29;;;;;;;32.20;20.13;;;-0.80;99.90;;;;;;5202163;28;20031;-30
2024/01/30 04:48:00;;;;;;;34.58;21.60;;;-0.70;99.90;;;;;;5186200;28;20036;-29
2024/01/30 04:50:31;;;;;;;31.60;18.60;;;-0.50;99.90;;;;;;5206740;28;20043;-30
2024/01/30 04:53:03;;;;;;;32.78;19.70;;;-0.40;99.90;;;;;;5183013;28;20048;-30
2024/01/30 04:55:35;;;;;;;32.03;18.90;;;-0.40;99.90;;;;;;5182626;28;20037;-29
2024/01/30 04:58:07;;;;;;;32.22;19.33;;;-0.40;99.90;;;;;;5178456;28;20236;-29
2024/01/30 05:00:38;;;;;;;31.40;18.60;;;-0.30;99.90;;;;;;5180557;28;20099;-31
2024/01/30 05:03:09;;;;;;;31.50;18.95;;;-0.40;99.90;;;;;;5160707;28;20049;-31
2024/01/30 05:05:41;;;;;;;31.15;17.17;;;-0.40;99.90;;;;;;5187543;28;20242;-30
2024/01/30 05:08:12;;;;;;;28.85;17.85;;;-0.30;99.90;;;;;;5201779;28;20307;-33
2024/01/30 05:10:43;;;;;;;37.08;19.80;;;-0.30;99.90;;;;;;5190796;28;20313;-30
2024/01/30 05:13:14;;;;;;;32.80;19.80;;;-0.40;99.90;;;;;;5200887;28;20123;-31
2024/01/30 05:15:46;;;;;;;38.05;21.08;;;-0.40;99.90;;;;;;5172859;28;20028;-32
2024/01/30 05:18:17;;;;;;;38.05;20.90;;;-0.40;99.90;;;;;;5182966;28;20030;-32
2024/01/30 05:20:49;;;;;;;35.22;20.95;;;-0.40;99.90;;;;;;5182710;28;20025;-31
2024/01/30 05:23:20;;;;;;;35.45;19.55;;;-0.70;99.90;;;;;;5182812;28;20393;-31
2024/01/30 05:25:51;;;;;;;31.33;18.70;;;-0.70;99.90;;;;;;5185602;28;20031;-31
2024/01/30 05:28:23;;;;;;;36.40;20.58;;;-0.80;99.90;;;;;;5187594;28;20029;-32
2024/01/30 05:30:54;;;;;;;43.85;25.05;;;-0.90;99.90;;;;;;5174766;28;20453;-30
2024/01/30 05:33:25;;;;;;;40.97;22.60;;;-0.90;99.90;;;;;;5182618;28;20400;-31
2024/01/30 05:35:56;;;;;;;40.15;22.90;;;-0.80;99.90;;;;;;5181140;28;20025;-31
2024/01/30 05:38:31;;;;;;;67.85;40.22;;;-0.70;99.90;;;;;;5184362;28;20245;-30
2024/01/30 05:41:03;;;;;;;45.88;27.45;;;-0.70;99.90;;;;;;5185915;28;20025;-30
2024/01/30 05:43:34;;;;;;;45.50;24.10;;;-0.90;99.90;;;;;;5186264;28;20120;-31
2024/01/30 05:46:06;;;;;;;34.58;21.55;;;-1.00;99.90;;;;;;5175176;28;20029;-30
2024/01/30 05:48:37;;;;;;;38.15;22.33;;;-1.00;99.90;;;;;;5173730;28;20035;-31
2024/01/30 05:51:09;;;;;;;36.90;21.00;;;-1.00;99.90;;;;;;5170448;28;20180;-31
2024/01/30 05:53:40;;;;;;;41.05;22.02;;;-1.00;99.90;;;;;;5181271;28;20227;-29
2024/01/30 05:56:11;;;;;;;39.85;22.85;;;-1.10;99.90;;;;;;5186240;28;20297;-29
2024/01/30 05:58:43;;;;;;;42.00;22.50;;;-1.10;99.90;;;;;;5186209;28;20051;-31
2024/01/30 06:01:14;;;;;;;39.10;23.23;;;-1.10;99.90;;;;;;5170622;28;20021;-31
2024/01/30 06:03:45;;;;;;;36.15;21.60;;;-1.00;99.90;;;;;;5176455;28;20018;-31
2024/01/30 06:06:16;;;;;;;39.70;22.98;;;-0.90;99.90;;;;;;5167139;28;20183;-31
2024/01/30 06:08:47;;;;;;;36.67;22.80;;;-0.90;99.90;;;;;;5182005;28;20353;-31
2024/01/30 06:11:19;;;;;;;40.13;23.38;;;-0.90;99.90;;;;;;5170364;28;20284;-31
2024/01/30 06:13:50;;;;;;;37.50;21.38;;;-0.90;99.90;;;;;;5185649;28;20430;-30
2024/01/30 06:16:22;;;;;;;40.72;21.48;;;-0.90;99.90;;;;;;5182494;28;20268;-31
2024/01/30 06:18:53;;;;;;;37.90;20.17;;;-1.10;99.90;;;;;;5181234;28;20033;-31
2024/01/30 06:21:24;;;;;;;37.30;20.23;;;-1.20;99.90;;;;;;5188533;28;20037;-30
2024/01/30 06:23:56;;;;;;;36.33;21.35;;;-1.10;99.90;;;;;;5171423;28;20043;-32
2024/01/30 06:26:27;;;;;;;36.85;21.20;;;-1.20;99.90;;;;;;5181287;28;20427;-31
2024/01/30 06:28:58;;;;;;;35.95;20.80;;;-1.20;99.90;;;;;;5194771;28;20461;-31
2024/01/30 06:31:29;;;;;;;39.30;20.80;;;-1.00;99.90;;;;;;5187101;28;20245;-30
2024/01/30 06:34:00;;;;;;;36.87;21.27;;;-1.10;99.90;;;;;;5177445;28;20055;-30
2024/01/30 06:36:31;;;;;;;36.63;20.55;;;-1.00;99.90;;;;;;5187003;28;20202;-29
2024/01/30 06:39:03;;;;;;;36.40;20.58;;;-0.90;99.90;;;;;;5170305;28;20263;-30
2024/01/30 06:41:35;;;;;;;36.17;21.43;;;-0.80;99.90;;;;;;5181402;28;20302;-29
2024/01/30 06:44:08;;;;;;;41.60;22.52;;;-0.80;99.90;;;;;;5185844;28;20353;-30
2024/01/30 06:46:39;;;;;;;35.38;22.02;;;-0.80;99.90;;;;;;5194911;28;20334;-28
2024/01/30 06:49:10;;;;;;;39.63;22.20;;;-0.60;99.90;;;;;;5181623;28;20041;-29
2024/01/30 06:51:41;;;;;;;40.83;23.85;;;-0.60;99.90;;;;;;5184772;28;20513;-31
2024/01/30 06:54:12;;;;;;;42.33;23.70;;;-0.60;99.90;;;;;;5182390;28;20043;-32
2024/01/30 06:56:44;;;;;;;41.72;23.17;;;-0.50;99.90;;;;;;5170358;28;20123;-31
2024/01/30 06:59:15;;;;;;;43.25;23.95;;;-0.30;99.90;;;;;;5171390;28;20037;-33
2024/01/30 07:01:46;;;;;;;44.90;22.95;;;-0.40;99.90;;;;;;5181441;28;20352;-31
2024/01/30 07:04:18;;;;;;;40.30;22.88;;;-0.30;99.90;;;;;;5193366;28;20383;-31
2024/01/30 07:06:49;;;;;;;39.92;23.00;;;-0.10;99.90;;;;;;5184723;28;20026;-31
2024/01/30 07:09:21;;;;;;;42.45;24.55;;;0.00;99.90;;;;;;5185577;28;20037;-31
2024/01/30 07:11:53;;;;;;;42.35;23.67;;;0.10;99.90;;;;;;5177806;28;20025;-32
2024/01/30 07:14:25;;;;;;;41.55;23.45;;;0.30;99.90;;;;;;5183902;28;20037;-32
2024/01/30 07:16:56;;;;;;;40.60;25.27;;;0.60;99.90;;;;;;5182086;28;20033;-32
2024/01/30 07:19:27;;;;;;;45.28;25.42;;;0.50;99.90;;;;;;5212266;28;20025;-32
2024/01/30 07:21:59;;;;;;;40.92;24.88;;;0.70;99.90;;;;;;5196069;28;20031;-32
2024/01/30 07:24:30;;;;;;;47.78;27.25;;;0.80;99.90;;;;;;5185742;28;20048;-32
2024/01/30 07:27:02;;;;;;;43.90;26.50;;;1.00;99.90;;;;;;5185419;28;20029;-33
2024/01/30 07:29:33;;;;;;;43.60;25.88;;;1.20;99.90;;;;;;5157402;28;20246;-32
2024/01/30 07:32:04;;;;;;;43.97;25.27;;;1.30;99.90;;;;;;5171192;28;20256;-34
2024/01/30 07:34:36;;;;;;;38.65;23.80;;;1.60;99.90;;;;;;5188821;28;20138;-32
2024/01/30 07:37:08;;;;;;;40.25;23.35;;;1.80;99.90;;;;;;5188560;28;20455;-32
2024/01/30 07:39:40;;;;;;;39.33;22.67;;;2.00;99.90;;;;;;5188745;28;20171;-33
2024/01/30 07:42:11;;;;;;;45.78;26.75;;;2.50;99.90;;;;;;5188671;28;20241;-32
2024/01/30 07:44:42;;;;;;;38.35;24.08;;;3.10;99.90;;;;;;5190037;28;20163;-32
2024/01/30 07:47:13;;;;;;;39.10;23.58;;;3.30;99.90;;;;;;5163803;28;20306;-36
2024/01/30 07:49:44;;;;;;;39.35;23.38;;;3.40;99.90;;;;;;5177890;28;20044;-33
2024/01/30 07:52:15;;;;;;;38.35;22.27;;;3.60;99.90;;;;;;5196493;28;20012;-33
2024/01/30 07:54:47;;;;;;;37.35;22.75;;;3.80;99.90;;;;;;5187894;28;20404;-33
2024/01/30 07:57:18;;;;;;;37.22;22.33;;;4.00;99.90;;;;;;5188114;28;20195;-33
2024/01/30 07:59:49;;;;;;;32.55;20.70;;;4.30;1.00;;;;;;5192997;28;20033;-34
2024/01/30 08:02:20;;;;;;;29.38;18.35;;;4.40;1.00;;;;;;5184929;28;20232;-34
2024/01/30 08:04:51;;;;;;;29.35;19.45;;;4.60;99.90;;;;;;5188651;28;20029;-34
2024/01/30 08:07:23;;;;;;;28.98;18.85;;;4.60;1.00;;;;;;5173991;28;20022;-34
2024/01/30 08:09:54;;;;;;;25.77;17.80;;;4.60;99.90;;;;;;5189650;28;20029;-34
2024/01/30 08:12:25;;;;;;;34.38;18.75;;;4.90;99.90;;;;;;5188651;28;20040;-38
2024/01/30 08:14:56;;;;;;;26.85;17.67;;;5.30;99.90;;;;;;5169497;28;20037;-34
2024/01/30 08:17:28;;;;;;;29.63;18.15;;;5.40;1.00;;;;;;5183743;28;20033;-33
2024/01/30 08:19:59;;;;;;;27.20;17.73;;;5.70;1.00;;;;;;5186421;28;20029;-34
2024/01/30 08:22:31;;;;;;;27.35;17.10;;;6.00;1.00;;;;;;5184938;28;20246;-34
2024/01/30 08:25:02;;;;;;;30.92;18.45;;;6.20;1.00;;;;;;5186985;28;20222;-34
2024/01/30 08:27:35;;;;;;;25.88;16.38;;;6.40;99.90;;;;;;5200006;28;20034;-34
2024/01/30 08:30:07;;;;;;;30.05;16.63;;;6.70;1.00;;;;;;5166302;28;20053;-34
2024/01/30 08:32:38;;;;;;;29.55;18.45;;;6.90;1.00;;;;;;5165187;28;20068;-33
2024/01/30 08:35:09;;;;;;;29.73;17.80;;;7.10;1.00;;;;;;5187869;28;20306;-34
2024/01/30 08:37:40;;;;;;;28.30;17.02;;;7.40;1.00;;;;;;5189585;28;20494;-38
2024/01/30 08:40:12;;;;;;;24.17;16.38;;;7.60;99.90;;;;;;5165582;28;20262;-33
2024/01/30 08:42:43;;;;;;;23.73;16.88;;;8.30;1.00;;;;;;5196899;28;20330;-33
2024/01/30 08:45:14;;;;;;;22.65;16.42;;;9.10;1.00;;;;;;5182572;28;20045;-33
2024/01/30 08:47:46;;;;;;;23.55;15.02;;;9.50;1.00;;;;;;5174380;28;20045;-33
2024/01/30 08:50:17;;;;;;;26.85;17.25;;;10.00;1.00;;;;;;5178574;28;20041;-34
2024/01/30 08:52:48;;;;;;;27.55;18.10;;;10.50;99.90;;;;;;5174995;28;20025;-33
2024/01/30 08:55:19;;;;;;;25.83;15.80;;;10.50;1.00;;;;;;5174746;28;20333;-33
2024/01/30 08:57:52;;;;;;;22.52;15.40;;;10.50;95.00;;;;;;5187405;28;20044;-34
2024/01/30 09:00:23;;;;;;;20.50;14.95;;;10.50;99.90;;;;;;5179315;28;20460;-35
2024/01/30 09:02:54;;;;;;;24.40;16.88;;;10.60;1.00;;;;;;5185851;28;20232;-39
2024/01/30 09:05:25;;;;;;;20.33;15.40;;;10.90;99.90;;;;;;5191845;28;20508;-33
2024/01/30 09:07:56;;;;;;;19.30;13.35;;;10.00;92.90;;;;;;5179271;28;20419;-33
2024/01/30 09:10:27;;;;;;;22.98;15.70;;;9.70;37.20;;;;;;5175999;28;20448;-33
2024/01/30 09:12:59;;;;;;;21.63;16.13;;;10.50;1.00;;;;;;5184427;28;20104;-34
2024/01/30 09:15:30;;;;;;;20.30;14.13;;;11.20;99.90;;;;;;5162255;28;20309;-34
2024/01/30 09:18:01;;;;;;;23.73;15.85;;;10.80;1.00;;;;;;5184870;28;20037;-33
2024/01/30 09:20:32;;;;;;;22.48;14.90;;;11.00;1.00;;;;;;5184240;28;20049;-34
2024/01/30 09:23:04;;;;;;;20.50;13.65;;;11.70;99.90;;;;;;5190935;28;20029;-35
2024/01/30 09:25:35;;;;;;;19.83;14.63;;;12.00;1.00;;;;;;5164163;28;20367;-33
2024/01/30 09:28:06;;;;;;;23.17;15.15;;;11.90;99.90;;;;;;5179082;28;20412;-40
2024/01/30 09:30:38;;;;;;;22.38;14.93;;;11.20;99.90;;;;;;5152990;28;20325;-34
2024/01/30 09:33:09;;;;;;;20.55;13.75;;;10.90;99.90;;;;;;5178680;28;20036;-34
2024/01/30 09:35:40;;;;;;;23.05;14.73;;;10.90;99.90;;;;;;5177439;28;20382;-34
2024/01/30 09:38:11;;;;;;;20.73;13.70;;;11.60;1.00;;;;;;5197114;28;20052;-34
2024/01/30 09:40:43;;;;;;;19.67;14.00;;;11.90;99.90;;;;;;5177195;28;20345;-35
2024/01/30 09:43:19;;;;;;;18.33;13.52;;;11.10;1.00;;;;;;5173446;28;20468;-33
2024/01/30 09:45:54;;;;;;;19.40;13.52;;;10.30;1.00;;;;;;5162406;28;20056;-35
2024/01/30 09:48:26;;;;;;;21.77;14.55;;;10.60;77.50;;;;;;5205403;28;20037;-34
2024/01/30 09:50:58;;;;;;;19.85;14.95;;;11.30;99.90;;;;;;5177500;28;20437;-33
2024/01/30 09:53:29;;;;;;;20.25;14.55;;;12.10;99.90;;;;;;5195078;28;20091;-34
2024/01/30 09:56:02;;;;;;;21.55;15.27;;;12.50;99.90;;;;;;5157990;28;20029;-32
2024/01/30 09:58:33;;;;;;;21.60;14.32;;;12.70;99.90;;;;;;5137478;28;20326;-33
2024/01/30 10:01:05;;;;;;;26.20;15.85;;;11.80;81.40;;;;;;5159106;28;20036;-32
2024/01/30 10:03:36;;;;;;;18.33;13.45;;;12.50;99.90;;;;;;5179999;28;20296;-33
2024/01/30 10:06:08;;;;;;;19.38;13.48;;;12.80;1.00;;;;;;5175155;28;20037;-33
2024/01/30 10:08:40;;;;;;;20.00;14.60;;;12.00;1.00;;;;;;5136865;28;20041;-34
2024/01/30 10:11:11;;;;;;;18.45;13.95;;;13.00;99.90;;;;;;5172090;28;20036;-34
2024/01/30 10:13:43;;;;;;;20.60;14.73;;;13.50;94.30;;;;;;5172057;28;20079;-33
2024/01/30 10:16:16;;;;;;;20.50;14.57;;;13.50;1.00;;;;;;5158900;28;20033;-34
2024/01/30 10:18:47;;;;;;;18.45;14.20;;;13.00;1.00;;;;;;5186671;28;20057;-34
2024/01/30 10:21:19;;;;;;;17.70;13.27;;;13.10;1.00;;;;;;5162377;28;20052;-33
2024/01/30 10:23:50;;;;;;;18.55;14.00;;;11.80;1.00;;;;;;5187752;28;20057;-34
2024/01/30 10:26:21;;;;;;;20.40;14.15;;;12.00;1.00;;;;;;5169129;28;20290;-33
2024/01/30 10:28:53;;;;;;;22.15;14.93;;;12.50;1.00;;;;;;5173556;28;20037;-33
2024/01/30 10:31:24;;;;;;;20.23;14.98;;;12.10;1.00;;;;;;5176725;28;20169;-33
2024/01/30 10:33:55;;;;;;;17.35;12.48;;;12.40;1.00;;;;;;5160075;28;20052;-34
2024/01/30 10:36:31;;;;;;;19.13;12.57;;;11.40;1.00;;;;;;5183483;28;20026;-33
2024/01/30 10:39:06;;;;;;;21.20;14.90;;;11.90;1.00;;;;;;5182761;28;20435;-33
2024/01/30 10:41:42;;;;;;;;;;;13.00;1.00;;;;;;5187470;28;20025;-33
2024/01/30 10:44:19;;;;;;;19.88;13.70;;;13.60;1.00;;;;;;5179496;28;19927;-33
2024/01/30 10:47:00;;;;;;;17.08;12.35;;;14.10;1.00;;;;;;5178643;28;20627;-33
2024/01/30 10:49:32;;;;;;;20.77;14.40;;;13.40;1.00;;;;;;5165830;28;20463;-33
2024/01/30 10:52:05;;;;;;;17.65;12.52;;;13.90;1.00;;;;;;5178576;28;20261;-38
2024/01/30 10:54:37;;;;;;;20.80;14.82;;;12.60;1.00;;;;;;5179247;28;20045;-33
2024/01/30 10:57:11;;;;;;;20.30;13.93;;;13.40;1.00;;;;;;5177844;28;20329;-32
2024/01/30 10:59:43;;;;;;;17.95;13.38;;;13.30;1.00;;;;;;5175227;28;20044;-34
2024/01/30 11:02:15;;;;;;;17.05;12.75;;;13.30;1.00;;;;;;5182982;28;20198;-32
2024/01/30 11:04:47;;;;;;;22.33;14.68;;;13.00;1.00;;;;;;5172140;28;20076;-34
2024/01/30 11:07:24;;;;;;;19.00;14.55;;;13.60;1.00;;;;;;5182835;28;20026;-33
2024/01/30 11:10:00;;;;;;;21.95;15.63;;;14.30;1.00;;;;;;5188683;28;20396;-33
2024/01/30 11:12:35;;;;;;;22.85;16.90;;;13.40;1.00;;;;;;5180335;28;20194;-33
2024/01/30 11:15:15;;;;;;;42.90;28.80;;;12.80;1.00;;;;;;5185006;28;20045;-33
2024/01/30 11:17:49;;;;;;;23.63;16.17;;;13.80;1.00;;;;;;5189311;28;20033;-33
2024/01/30 11:20:27;;;;;;;50.75;30.95;;;14.40;1.00;;;;;;5165356;28;20054;-33
2024/01/30 11:23:05;;;;;;;34.05;22.40;;;15.40;1.00;;;;;;5169853;28;20049;-33
2024/01/30 11:25:37;;;;;;;40.58;24.98;;;14.00;1.00;;;;;;5172949;28;20046;-38
2024/01/30 11:28:15;;;;;;;45.30;30.48;;;13.80;1.00;;;;;;5165248;28;20033;-34
2024/01/30 11:30:47;;;;;;;55.65;29.95;;;14.00;1.00;;;;;;5178202;28;20315;-34
2024/01/30 11:33:32;;;;;;;41.38;26.30;;;14.00;1.00;;;;;;5181016;28;20026;-34
2024/01/30 11:36:06;;;;;;;57.55;36.92;;;14.70;1.00;;;;;;5185040;28;20346;-33
2024/01/30 11:38:38;;;;;;;46.30;27.58;;;14.80;1.00;;;;;;5177876;28;20035;-33
2024/01/30 11:41:09;;;;;;;22.33;14.77;;;15.30;1.00;;;;;;5188734;28;20037;-39
2024/01/30 11:43:40;;;;;;;15.63;10.45;;;15.20;1.00;;;;;;5187325;28;20033;-38
2024/01/30 11:46:12;;;;;;;21.20;13.50;;;11.10;99.90;;;;;;5184693;28;20365;-41
2024/01/30 11:48:43;;;;;;;15.60;11.40;;;10.20;99.90;;;;;;5188572;28;20408;-40
2024/01/30 11:51:14;;;;;;;18.67;10.63;;;9.20;99.90;;;;;;5183203;28;20169;-48
2024/01/30 11:53:49;;;;;;;16.98;10.10;;;9.70;1.00;;;;;;5163379;28;20744;-49
2024/01/30 11:56:21;;;;;;;18.60;11.23;;;8.80;99.90;;;;;;5173117;28;20222;-49
2024/01/30 11:58:52;;;;;;;14.77;10.20;;;8.40;99.90;;;;;;5187390;28;20335;-49
2024/01/30 12:01:23;;;;;;;47.35;27.05;;;8.40;99.90;;;;;;5183230;28;20406;-41
2024/01/30 12:03:56;;;;;;;14.40;9.43;;;8.70;1.00;;;;;;5185293;28;20044;-48
2024/01/30 12:06:28;;;;;;;14.52;10.05;;;8.70;99.90;;;;;;5183653;28;20045;-48
2024/01/30 12:09:04;;;;;;;14.07;8.93;;;8.30;99.90;;;;;;5181803;28;20033;-47
2024/01/30 12:11:45;;;;;;;16.13;9.02;;;8.20;99.90;;;;;;5162217;28;20447;-48
2024/01/30 12:14:17;;;;;;;15.05;10.88;;;7.80;99.90;;;;;;5183856;28;20193;-49
2024/01/30 12:16:50;;;;;;;16.88;10.73;;;8.20;99.90;;;;;;5171647;28;20352;-49
2024/01/30 12:19:25;;;;;;;16.95;10.57;;;8.80;99.90;;;;;;5187700;28;20259;-49
2024/01/30 12:21:58;;;;;;;16.48;9.73;;;9.10;99.90;;;;;;5174783;28;20055;-48
2024/01/30 12:24:32;;;;;;;15.50;11.70;;;9.20;99.90;;;;;;5182908;28;20345;-49
2024/01/30 12:27:04;;;;;;;17.15;10.82;;;9.20;99.90;;;;;;5130035;28;20053;-49
2024/01/30 12:29:35;;;;;;;16.55;10.50;;;8.70;99.90;;;;;;5155368;28;20635;-49
2024/01/30 12:32:06;;;;;;;13.25;9.80;;;8.80;99.90;;;;;;5176149;28;20103;-48
2024/01/30 12:34:41;;;;;;;15.68;10.52;;;8.80;99.90;;;;;;5182610;28;20252;-49
2024/01/30 12:37:13;;;;;;;14.52;10.30;;;8.80;99.90;;;;;;5173005;28;20045;-48
2024/01/30 12:39:45;;;;;;;16.80;10.85;;;8.90;99.90;;;;;;5174486;28;20320;-49
2024/01/30 12:42:16;;;;;;;14.60;9.63;;;9.00;99.90;;;;;;5165185;28;20057;-49
2024/01/30 12:44:48;;;;;;;15.90;10.50;;;9.30;99.90;;;;;;5182867;28;20237;-48
2024/01/30 12:47:22;;;;;;;12.82;9.77;;;9.40;99.90;;;;;;5175986;28;20298;-49
2024/01/30 12:49:53;;;;;;;14.43;10.73;;;9.40;99.90;;;;;;5175276;28;20043;-48
2024/01/30 12:52:25;;;;;;;13.18;9.90;;;9.30;99.90;;;;;;5184038;28;20286;-48
2024/01/30 12:54:56;;;;;;;15.68;9.68;;;9.30;99.90;;;;;;5182628;28;20340;-48